createdAt,value
2017-10-12T00:00:15.888Z,100679.61
2017-10-12T00:05:18.591Z,100688.30
2017-10-12T00:10:21.237Z,100685.04
2017-10-12T00:15:23.186Z,100684.20
2017-10-12T00:20:25.107Z,100671.77
2017-10-12T00:25:27.068Z,100664.17
2017-10-12T00:30:28.996Z,100667.28
2017-10-12T00:35:30.942Z,100656.44
2017-10-12T00:40:33.648Z,100640.92
2017-10-12T00:45:36.343Z,100637.81
2017-10-12T00:50:38.331Z,100617.53
2017-10-12T00:55:40.234Z,100632.78
2017-10-12T01:00:42.316Z,100632.35
2017-10-12T01:05:44.302Z,100626.95
2017-10-12T01:10:47.191Z,100628.84
2017-10-12T01:15:49.975Z,100623.61
2017-10-12T01:20:53.060Z,100624.98
2017-10-12T01:25:55.070Z,100629.55
2017-10-12T01:30:57.097Z,100619.99
2017-10-12T01:35:59.132Z,100613.11
2017-10-12T01:41:01.230Z,100618.01
2017-10-12T01:46:03.329Z,100621.05
2017-10-12T01:51:05.348Z,100605.37
2017-10-12T01:56:07.322Z,100613.63
2017-10-12T02:01:10.032Z,100616.58
2017-10-12T02:06:12.008Z,100619.70
2017-10-12T02:11:14.014Z,100629.17
2017-10-12T02:16:15.963Z,100621.30
2017-10-12T02:21:18.607Z,100616.06
2017-10-12T02:26:20.693Z,100622.09
2017-10-12T02:31:22.709Z,100628.77
2017-10-12T02:36:24.683Z,100621.30
2017-10-12T02:41:26.608Z,100630.92
2017-10-12T02:46:29.419Z,100637.05
2017-10-12T02:51:32.125Z,100641.99
2017-10-12T02:56:34.084Z,100633.24
2017-10-12T03:01:36.064Z,100638.06
2017-10-12T03:06:38.048Z,100646.41
2017-10-12T03:11:40.723Z,100648.48
2017-10-12T03:16:42.836Z,100664.59
2017-10-12T03:21:44.840Z,100670.41
2017-10-12T03:26:46.787Z,100674.16
2017-10-12T03:31:49.511Z,100685.70
2017-10-12T03:36:52.374Z,100656.46
2017-10-12T03:41:54.364Z,100642.77
2017-10-12T03:46:56.392Z,100666.69
2017-10-12T03:51:58.395Z,100672.70
2017-10-12T03:57:00.383Z,100662.48
2017-10-12T04:02:02.383Z,100685.94
2017-10-12T04:07:04.378Z,100694.14
2017-10-12T04:12:07.044Z,100708.54
2017-10-12T04:17:08.949Z,100707.33
2017-10-12T04:22:10.875Z,100726.07
2017-10-12T04:27:12.789Z,100719.06
2017-10-12T04:32:14.704Z,100728.13
2017-10-12T04:37:16.680Z,100739.92
2017-10-12T04:42:18.599Z,100747.31
2017-10-12T04:47:20.528Z,100745.83
2017-10-12T04:52:22.450Z,100752.13
2017-10-12T04:57:24.403Z,100761.44
2017-10-12T05:02:26.316Z,100771.14
2017-10-12T05:07:28.210Z,100779.17
2017-10-12T05:12:30.241Z,100779.02
2017-10-12T05:17:32.877Z,100784.97
2017-10-12T05:22:34.807Z,100799.15
2017-10-12T05:27:36.760Z,100793.44
2017-10-12T05:32:39.499Z,100813.94
2017-10-12T05:37:41.433Z,100817.61
2017-10-12T05:42:43.438Z,100831.70
2017-10-12T05:47:45.356Z,100849.54
2017-10-12T05:52:47.337Z,100860.55
2017-10-12T05:57:49.347Z,100866.44
2017-10-12T06:02:51.252Z,100878.43
2017-10-12T06:07:53.184Z,100893.22
2017-10-12T06:12:57.071Z,100908.63
2017-10-12T06:17:59.699Z,100923.64
2017-10-12T06:23:01.988Z,100920.24
2017-10-12T06:28:04.678Z,100939.84
2017-10-12T06:33:06.633Z,100939.33
2017-10-12T06:38:08.859Z,100971.83
2017-10-12T06:43:11.755Z,100978.27
2017-10-12T06:48:14.522Z,100984.34
2017-10-12T06:53:19.505Z,100993.52
2017-10-12T06:58:26.744Z,100998.39
2017-10-12T07:03:28.826Z,101007.69
2017-10-12T07:08:30.743Z,101015.33
2017-10-12T07:13:32.688Z,101027.48
2017-10-12T07:18:38.238Z,101037.59
2017-10-12T07:23:40.231Z,101064.54
2017-10-12T07:28:43.830Z,101071.89
2017-10-12T07:33:45.952Z,101066.23
2017-10-12T07:38:54.831Z,101077.77
2017-10-12T07:44:02.968Z,101085.88
2017-10-12T07:49:05.594Z,101089.01
2017-10-12T07:54:07.517Z,101085.45
2017-10-12T07:59:09.472Z,101115.69
2017-10-12T08:04:12.202Z,101120.46
2017-10-12T08:09:14.931Z,101140.81
2017-10-12T08:14:16.885Z,101148.20
2017-10-12T08:19:18.827Z,101145.50
2017-10-12T08:24:21.535Z,101153.31
2017-10-12T08:29:23.457Z,101163.45
2017-10-12T08:34:26.224Z,101179.43
2017-10-12T08:39:28.202Z,101185.03
2017-10-12T08:44:30.114Z,101196.95
2017-10-12T08:49:32.059Z,101212.19
2017-10-12T08:54:33.965Z,101226.81
2017-10-12T08:59:35.876Z,101232.39
2017-10-12T09:04:37.866Z,101241.47
2017-10-12T09:09:39.878Z,101261.02
2017-10-12T09:14:41.861Z,101251.12
2017-10-12T09:19:43.794Z,101259.31
2017-10-12T09:24:45.740Z,101263.62
2017-10-12T09:29:47.763Z,101257.40
2017-10-12T09:34:49.801Z,101279.48
2017-10-12T09:39:51.808Z,101290.26
2017-10-12T09:44:53.831Z,101286.00
2017-10-12T09:49:55.847Z,101296.52
2017-10-12T09:54:57.855Z,101306.84
2017-10-12T10:00:00.597Z,101324.83
2017-10-12T10:05:03.212Z,101322.87
2017-10-12T10:10:05.804Z,101337.16
2017-10-12T10:15:08.444Z,101347.06
2017-10-12T10:20:10.343Z,101347.69
2017-10-12T10:25:12.279Z,101350.95
2017-10-12T10:30:14.225Z,101355.11
2017-10-12T10:35:16.193Z,101368.34
2017-10-12T10:40:18.103Z,101376.69
2017-10-12T10:45:20.016Z,101384.38
2017-10-12T10:50:22.774Z,101396.37
2017-10-12T10:55:25.500Z,101399.83
2017-10-12T11:00:28.163Z,101401.42
2017-10-12T11:05:30.137Z,101416.06
2017-10-12T11:10:32.785Z,101421.02
2017-10-12T11:15:34.727Z,101432.27
2017-10-12T11:20:36.644Z,101428.01
2017-10-12T11:25:39.321Z,101438.73
2017-10-12T11:30:41.260Z,101436.30
2017-10-12T11:35:43.189Z,101441.55
2017-10-12T11:40:45.886Z,101434.55
2017-10-12T11:45:47.778Z,101447.56
2017-10-12T11:50:49.730Z,101435.23
2017-10-12T11:55:52.467Z,101433.59
2017-10-12T12:00:55.130Z,101437.09
2017-10-12T12:05:57.131Z,101444.84
2017-10-12T12:10:59.071Z,101453.10
2017-10-12T12:16:01.911Z,101456.56
2017-10-12T12:21:04.082Z,101457.23
2017-10-12T12:26:06.088Z,101455.70
2017-10-12T12:31:09.035Z,101467.84
2017-10-12T12:36:11.977Z,101481.06
2017-10-12T12:41:13.893Z,101488.69
2017-10-12T12:46:18.527Z,101493.73
2017-10-12T12:51:21.414Z,101496.81
2017-10-12T12:56:23.575Z,101511.31
2017-10-12T13:01:30.569Z,101526.22
2017-10-12T13:06:32.597Z,101527.55
2017-10-12T13:11:38.890Z,101532.00
2017-10-12T13:16:41.629Z,101536.25
2017-10-12T13:21:44.271Z,101536.75
2017-10-12T13:26:51.228Z,101538.22
2017-10-12T13:31:56.110Z,101543.97
2017-10-12T13:37:00.369Z,101544.84
2017-10-12T13:42:03.975Z,101550.41
2017-10-12T13:47:05.890Z,101556.08
2017-10-12T13:52:10.083Z,101553.91
2017-10-12T13:57:12.781Z,101556.04
2017-10-12T14:02:14.779Z,101549.32
2017-10-12T14:07:16.710Z,101554.06
2017-10-12T14:12:18.764Z,101549.81
2017-10-12T14:17:20.712Z,101552.77
2017-10-12T14:22:24.177Z,101561.81
2017-10-12T14:27:26.124Z,101563.98
2017-10-12T14:32:28.038Z,101575.05
2017-10-12T14:37:29.972Z,101580.58
2017-10-12T14:42:31.957Z,101592.44
2017-10-12T14:47:33.919Z,101593.94
2017-10-12T14:52:35.894Z,101596.33
2017-10-12T14:57:38.579Z,101605.63
2017-10-12T15:02:40.577Z,101600.55
2017-10-12T15:07:42.565Z,101609.50
2017-10-12T15:12:44.520Z,101613.42
2017-10-12T15:17:46.569Z,101612.02
2017-10-12T15:22:48.553Z,101624.26
2017-10-12T15:27:51.266Z,101634.95
2017-10-12T15:32:53.978Z,101638.80
2017-10-12T15:37:55.957Z,101638.58
2017-10-12T15:42:57.879Z,101649.85
2017-10-12T15:47:59.848Z,101654.59
2017-10-12T15:53:01.825Z,101663.77
2017-10-12T15:58:03.806Z,101667.29
2017-10-12T16:03:05.759Z,101663.33
2017-10-12T16:08:07.706Z,101669.92
2017-10-12T16:13:09.630Z,101682.91
2017-10-12T16:18:11.548Z,101689.37
2017-10-12T16:23:13.533Z,101693.94
2017-10-12T16:28:16.196Z,101696.48
2017-10-12T16:33:18.171Z,101698.30
2017-10-12T16:38:20.180Z,101698.48
2017-10-12T16:43:22.545Z,101710.58
2017-10-12T16:48:24.516Z,101704.88
2017-10-12T16:53:26.442Z,101712.63
2017-10-12T16:58:28.429Z,101714.68
2017-10-12T17:03:30.361Z,101714.94
2017-10-12T17:08:32.742Z,101722.17
2017-10-12T17:13:34.711Z,101718.09
2017-10-12T17:18:37.405Z,101718.28
2017-10-12T17:28:42.110Z,101733.50
2017-10-12T17:38:46.760Z,101741.63
2017-10-12T17:43:48.655Z,101733.88
2017-10-12T17:48:50.738Z,101741.20
2017-10-12T17:53:52.720Z,101749.86
2017-10-12T17:58:54.801Z,101751.02
2017-10-12T18:04:03.807Z,101755.58
2017-10-12T18:09:05.975Z,101762.95
2017-10-12T18:14:08.470Z,101754.00
2017-10-12T18:19:11.413Z,101747.97
2017-10-12T18:24:13.879Z,101762.16
2017-10-12T18:29:15.805Z,101769.84
2017-10-12T18:34:17.914Z,101779.69
2017-10-12T18:39:19.961Z,101787.64
2017-10-12T18:44:21.964Z,101791.91
2017-10-12T18:49:24.075Z,101791.69
2017-10-12T18:54:27.678Z,101791.11
2017-10-12T18:59:31.420Z,101789.67
2017-10-12T19:04:34.564Z,101800.92
2017-10-12T19:09:37.277Z,101805.64
2017-10-12T19:14:40.184Z,101810.23
2017-10-12T19:19:43.089Z,101811.38
2017-10-12T19:24:45.650Z,101810.83
2017-10-12T19:29:47.641Z,101812.66
2017-10-12T19:34:49.655Z,101814.47
2017-10-12T19:39:51.637Z,101813.82
2017-10-12T19:44:53.591Z,101813.59
2017-10-12T19:49:55.494Z,101819.03
2017-10-12T19:54:57.411Z,101821.65
2017-10-12T19:59:59.317Z,101827.63
2017-10-12T20:05:02.001Z,101828.72
2017-10-12T20:10:04.109Z,101834.00
2017-10-12T20:15:06.270Z,101824.59
2017-10-12T20:20:08.290Z,101830.31
2017-10-12T20:25:10.892Z,101835.52
2017-10-12T20:30:15.016Z,101841.05
2017-10-12T20:35:17.307Z,101837.63
2017-10-12T20:40:19.270Z,101835.83
2017-10-12T20:45:21.238Z,101847.79
2017-10-12T20:50:23.139Z,101854.61
2017-10-12T20:55:25.121Z,101860.70
2017-10-12T21:00:27.068Z,101843.03
2017-10-12T21:05:29.765Z,101845.39
2017-10-12T21:10:32.055Z,101843.96
2017-10-12T21:15:34.894Z,101838.26
2017-10-12T21:20:38.645Z,101841.46
2017-10-12T21:25:41.390Z,101844.17
2017-10-12T21:30:43.329Z,101839.31
2017-10-12T21:35:45.231Z,101835.69
2017-10-12T21:40:49.646Z,101833.51
2017-10-12T21:45:53.878Z,101832.45
2017-10-12T21:50:56.560Z,101835.30
2017-10-12T21:55:58.941Z,101829.64
2017-10-12T22:01:01.709Z,101851.26
2017-10-12T22:06:04.016Z,101841.31
2017-10-12T22:11:06.074Z,101840.26
2017-10-12T22:16:08.015Z,101834.79
2017-10-12T22:21:10.011Z,101842.16
2017-10-12T22:26:12.699Z,101830.47
2017-10-12T22:31:14.643Z,101831.95
2017-10-12T22:36:16.694Z,101823.79
2017-10-12T22:41:18.721Z,101815.84
2017-10-12T22:46:20.707Z,101820.25
2017-10-12T22:51:22.619Z,101818.73
2017-10-12T22:56:24.581Z,101820.92
2017-10-12T23:01:26.519Z,101809.80
2017-10-12T23:06:28.578Z,101806.23
2017-10-12T23:11:30.523Z,101811.12
2017-10-12T23:16:32.451Z,101803.55
2017-10-12T23:21:34.403Z,101816.96
2017-10-12T23:26:36.504Z,101814.68
2017-10-12T23:31:38.442Z,101807.66
2017-10-12T23:36:40.410Z,101811.00
2017-10-12T23:41:42.330Z,101818.61
2017-10-12T23:46:44.287Z,101820.66
2017-10-12T23:51:46.956Z,101819.91
2017-10-12T23:56:48.901Z,101822.53
